Santa Rosa, CA (95401)

7:07 PM PDT on September 16, 2014 (GMT -0700)
Sierra Meadows | Change Station
CLOSE
Current Station
Personal Weather Station
Location: Santa Rosa, CA
Elevation: 105 ft
Nearby Weather Stations

Elev 105 ft 38.44 °N, 122.76 °W | Updated 8 minutes ago

Partly Cloudy
Partly Cloudy
68.7 °F
Feels Like 68.7 °F
N
1.7
Wind Variable Wind from ESE

Today
High -- | Low -- °F
--% Chance of Precip.
Yesterday
High -- | Low -- °F
Precip. -- in
6:53 AM 7:17 PM
Last Quarter, 40% visible
Pressure 29.76 in
Visibility 10.0 miles
Clouds Mostly Cloudy 25000 ft
Dew Point 59 °F
Humidity 71%
Rainfall 0.00 in
Snow Depth 0 in , 2 in , 0 in
UV 1 out of 12
Pollen 5.20 out of 12
Air Quality Not available.
Flu Activity Not available.
METAR KSTS 170053Z 18008KT 10SM BKN250 26/12 A2978 RMK AO2 SLP078 T02610117

More Conditions Fewer Conditions

Pressure 29.76 in
Visibility 10.0 miles
Clouds Mostly Cloudy 25000 ft
Dew Point 59 °F
Humidity 71%
Rainfall 0.00 in
Snow Depth 0 in , 2 in , 0 in
UV 1 out of 12
Pollen 5.20 out of 12
Air Quality Not available.
Flu Activity Not available.
METAR KSTS 170053Z 18008KT 10SM BKN250 26/12 A2978 RMK AO2 SLP078 T02610117

More Conditions Fewer Conditions

10-Day Weather Forecast

Almanac

Astronomy

Sep. 16, 2014 Rise Set
Actual Time 6:53 AM PDT 7:17 PM PDT
Civil Twilight 6:27 AM PDT 7:43 PM PDT
Nautical Twilight 5:55 AM PDT 8:15 PM PDT
Astronomical Twilight 5:23 AM PDT 8:46 PM PDT
Moon 12:11 AM PDT (9/16) 2:42 PM PDT (9/16)
Length of Visible Light 13h 16m
Length of Day
12h 23m
Tomorrow will be 2m 28s shorter.
Last Quarter, 40% of the Moon is Illuminated
Today
Last Quarter
Sep 24
New
Oct 1
First Quarter
Oct 8
Full
Oct 15
Last Quarter

Today's Extremes

State Highs State Lows

Community

WunderPhotos

Upload Photos

1,753,947 photos uploaded!

Nearby

Air Quality

  Air Quality AQ Index Pollutant
Tuesday Good
PM2.5
Wednesday Good
PM2.5
Thursday Good
PM2.5
Friday Good
PM2.5
Saturday Good
PM2.5
Sunday Good
PM2.5

Snow Depth

Station Depth Elevation
Adin Mountain 0 in 6200 ft
CSS Lab 2 in 6900 ft
Leavitt Meadows 0 in 7200 ft

Earthquake Activity

City Distance Mag. Time & Date
Cobb, California 23 miles 2.7 1:23 PM PDT
2014-09-16
Covelo, California 92 miles 3.3 1:17 PM PDT
2014-09-14
Cobb, California 26 miles 2.7 11:07 AM PDT
2014-09-14
Minimum magnitude displayed is 2.5.

Coastal Water Temperatures

Place Temperature
Point Reyes, CA 64.9 °F
Arena Cove, CA 61.0 °F
San Francisco, CA 64.9 °F
Richmond, CA 69.1 °F

Nearby Weather Stations